Time;durP1;ratioP1;P1;durP2;ratioP2;P2;SDS_P1;SDS_P2;PMS_P1;PMS_P2;Temp;Humidity;BMP_temperature;BMP_pressure;BME280_temperature;BME280_humidity;BME280_pressure;Samples;Min_cycle;Max_cycle;Signal;HPM_P1;HPM_P2
2024/03/31 00:00:16;;;;;;;30.42;8.68;;;8.10;99.90;;;;;;5056140;28;20044;-68
2024/03/31 00:02:41;;;;;;;;;;;8.10;99.90;;;;;;5055747;28;20129;-69
2024/03/31 00:05:07;;;;;;;37.50;9.63;;;8.20;99.90;;;;;;5053490;28;20011;-68
2024/03/31 00:07:34;;;;;;;37.33;10.13;;;8.10;99.90;;;;;;5054648;28;20025;-69
2024/03/31 00:10:00;;;;;;;34.75;9.85;;;8.10;99.90;;;;;;5051164;28;20044;-68
2024/03/31 00:12:26;;;;;;;36.97;9.60;;;8.10;99.90;;;;;;5050658;28;20077;-68
2024/03/31 00:14:52;;;;;;;33.28;9.73;;;8.20;99.90;;;;;;5054502;28;20059;-67
2024/03/31 00:17:18;;;;;;;39.20;9.23;;;8.20;99.90;;;;;;5053191;28;20505;-67
2024/03/31 00:19:44;;;;;;;22.93;8.83;;;8.20;99.90;;;;;;5054885;28;20059;-69
2024/03/31 00:22:10;;;;;;;31.65;8.43;;;8.20;99.90;;;;;;5055748;28;20036;-68
2024/03/31 00:24:36;;;;;;;27.38;8.57;;;8.20;99.90;;;;;;5055553;28;20028;-68
2024/03/31 00:27:02;;;;;;;27.07;8.07;;;8.30;99.90;;;;;;5054269;28;20123;-68
2024/03/31 00:29:27;;;;;;;33.80;8.52;;;8.30;99.90;;;;;;5053492;28;20037;-69
2024/03/31 00:31:53;;;;;;;23.40;8.07;;;8.30;99.90;;;;;;5048249;28;20032;-68
2024/03/31 00:34:22;;;;;;;35.67;11.87;;;8.30;99.90;;;;;;5055539;28;20515;-69
2024/03/31 00:36:48;;;;;;;21.50;7.70;;;8.30;99.90;;;;;;5057374;28;20033;-69
2024/03/31 00:39:13;;;;;;;36.70;9.00;;;8.30;99.90;;;;;;5053949;28;20032;-67
2024/03/31 00:41:39;;;;;;;28.87;7.90;;;8.30;99.90;;;;;;5017485;28;1076420;-68
2024/03/31 00:44:05;;;;;;;24.27;7.17;;;8.40;99.90;;;;;;5054860;28;20024;-69
2024/03/31 00:46:31;;;;;;;24.88;7.30;;;8.40;99.90;;;;;;5048110;28;20538;-68
2024/03/31 00:48:57;;;;;;;20.65;7.05;;;8.50;99.90;;;;;;5055175;28;20029;-68
2024/03/31 00:51:23;;;;;;;24.45;6.82;;;8.40;99.90;;;;;;5059459;28;20029;-70
2024/03/31 00:53:48;;;;;;;21.67;7.37;;;8.40;99.90;;;;;;5057529;28;20029;-70
2024/03/31 00:56:15;;;;;;;22.15;5.95;;;8.50;99.90;;;;;;5057444;28;20690;-68
2024/03/31 00:58:41;;;;;;;22.23;6.88;;;8.50;99.90;;;;;;5055210;28;20070;-68
2024/03/31 01:01:08;;;;;;;22.50;7.40;;;8.50;99.90;;;;;;5056004;28;20128;-69
2024/03/31 01:03:33;;;;;;;;;;;8.50;99.90;;;;;;5054272;28;20040;-69
2024/03/31 01:06:06;;;;;;;16.58;5.97;;;8.50;99.90;;;;;;5052177;28;19913;-69
2024/03/31 01:08:32;;;;;;;18.17;5.78;;;8.60;99.90;;;;;;5051619;28;20029;-70
2024/03/31 01:10:58;;;;;;;21.20;6.23;;;8.60;99.90;;;;;;5053669;28;20087;-69
2024/03/31 01:13:23;;;;;;;13.13;5.77;;;8.60;99.90;;;;;;5052493;28;20158;-70
2024/03/31 01:15:49;;;;;;;22.63;6.67;;;8.60;99.90;;;;;;5054615;28;20059;-70
2024/03/31 01:18:15;;;;;;;22.03;6.67;;;8.70;99.90;;;;;;5054904;28;20160;-69
2024/03/31 01:20:40;;;;;;;22.17;5.47;;;8.60;99.90;;;;;;5055054;28;20283;-70
2024/03/31 01:23:08;;;;;;;18.43;5.90;;;8.60;99.90;;;;;;5055825;28;20021;-70
2024/03/31 01:25:34;;;;;;;23.58;6.45;;;8.50;99.90;;;;;;5055464;28;20075;-69
2024/03/31 01:27:59;;;;;;;14.00;5.88;;;8.40;99.90;;;;;;5053814;28;20040;-69
2024/03/31 01:30:25;;;;;;;21.20;5.57;;;8.30;99.90;;;;;;5053450;28;20036;-69
2024/03/31 01:32:51;;;;;;;22.53;5.80;;;8.30;99.90;;;;;;5058227;28;20040;-69
2024/03/31 01:35:16;;;;;;;27.23;6.80;;;8.20;99.90;;;;;;5053885;28;20508;-68
2024/03/31 01:37:42;;;;;;;19.37;6.70;;;8.10;99.90;;;;;;5049470;28;20267;-68
2024/03/31 01:40:08;;;;;;;19.33;6.87;;;8.00;99.90;;;;;;5055731;28;20093;-69
2024/03/31 01:42:34;;;;;;;17.80;6.25;;;8.00;99.90;;;;;;5054944;28;20409;-69
2024/03/31 01:44:59;;;;;;;32.27;5.70;;;8.00;99.90;;;;;;5058112;28;20033;-70
2024/03/31 01:47:25;;;;;;;16.27;6.23;;;8.00;99.90;;;;;;5056733;28;20029;-70
2024/03/31 01:49:51;;;;;;;23.23;6.23;;;7.90;99.90;;;;;;5058344;28;20025;-70
2024/03/31 01:52:17;;;;;;;24.83;6.03;;;7.90;99.90;;;;;;5059575;28;20036;-69
2024/03/31 01:54:43;;;;;;;12.88;5.97;;;7.90;99.90;;;;;;5058439;28;20439;-71
2024/03/31 01:57:09;;;;;;;18.20;6.30;;;7.90;99.90;;;;;;5057101;28;20028;-69
2024/03/31 01:59:35;;;;;;;13.35;5.22;;;7.80;99.90;;;;;;5057276;28;20037;-71
2024/03/31 02:02:01;;;;;;;21.97;6.43;;;7.70;99.90;;;;;;5056600;28;20032;-68
2024/03/31 02:04:27;;;;;;;29.48;5.68;;;7.70;99.90;;;;;;5058388;28;20114;-68
2024/03/31 02:06:52;;;;;;;12.07;5.33;;;7.50;99.90;;;;;;5056963;28;20041;-70
2024/03/31 02:09:18;;;;;;;14.20;5.83;;;7.60;99.90;;;;;;5056502;28;20779;-70
2024/03/31 02:11:44;;;;;;;28.13;7.83;;;7.60;99.90;;;;;;5056352;28;20107;-70
2024/03/31 02:14:09;;;;;;;16.33;5.32;;;7.60;99.90;;;;;;5056189;28;20257;-69
2024/03/31 02:16:35;;;;;;;23.30;6.53;;;7.60;99.90;;;;;;5056812;28;20643;-70
2024/03/31 02:19:01;;;;;;;27.27;7.40;;;7.50;99.90;;;;;;5057683;28;20031;-68
2024/03/31 02:21:26;;;;;;;19.83;6.18;;;7.50;99.90;;;;;;5057601;28;20028;-68
2024/03/31 02:23:52;;;;;;;21.70;5.70;;;7.60;99.90;;;;;;5055718;28;20524;-68
2024/03/31 02:26:18;;;;;;;19.83;6.53;;;7.80;99.90;;;;;;5057112;28;20029;-69
2024/03/31 02:28:43;;;;;;;18.43;5.70;;;7.80;99.90;;;;;;5059619;28;20580;-69
2024/03/31 02:31:09;;;;;;;16.77;5.20;;;8.00;99.90;;;;;;5061764;28;20033;-68
2024/03/31 02:33:34;;;;;;;16.23;5.23;;;8.00;99.90;;;;;;5055384;28;20032;-68
2024/03/31 02:36:00;;;;;;;21.13;6.22;;;8.00;99.90;;;;;;5058702;28;20036;-68
2024/03/31 02:38:26;;;;;;;13.83;5.17;;;8.00;99.90;;;;;;5058146;28;20036;-70
2024/03/31 02:40:51;;;;;;;17.27;4.80;;;8.10;99.90;;;;;;5051161;28;20404;-72
2024/03/31 02:43:17;;;;;;;20.97;5.57;;;8.00;99.90;;;;;;5056088;28;20029;-70
2024/03/31 02:45:42;;;;;;;21.63;6.20;;;8.00;99.90;;;;;;5055071;28;20025;-70
2024/03/31 02:48:08;;;;;;;17.77;6.50;;;8.00;99.90;;;;;;5055210;28;20675;-70
2024/03/31 02:50:34;;;;;;;21.93;6.03;;;7.90;99.90;;;;;;5059630;28;20117;-70
2024/03/31 02:52:59;;;;;;;18.30;5.93;;;7.90;99.90;;;;;;5054846;28;20508;-69
2024/03/31 02:55:25;;;;;;;14.47;5.40;;;7.90;99.90;;;;;;5053986;28;20037;-69
2024/03/31 02:57:50;;;;;;;21.10;5.80;;;7.90;99.90;;;;;;5056104;28;20029;-70
2024/03/31 03:00:16;;;;;;;21.80;5.60;;;7.90;99.90;;;;;;5056859;28;20039;-70
2024/03/31 03:02:42;;;;;;;19.20;6.38;;;7.90;99.90;;;;;;5055299;28;20051;-70
2024/03/31 03:05:08;;;;;;;19.45;6.93;;;7.90;99.90;;;;;;5052736;28;20115;-71
2024/03/31 03:07:34;;;;;;;16.85;5.93;;;8.00;99.90;;;;;;5056819;28;20032;-70
2024/03/31 03:10:00;;;;;;;23.58;6.72;;;8.00;99.90;;;;;;5057323;28;20043;-70
2024/03/31 03:12:26;;;;;;;20.05;5.88;;;8.00;99.90;;;;;;5057145;28;20036;-70
2024/03/31 03:14:52;;;;;;;16.60;4.93;;;8.00;99.90;;;;;;5054852;28;20040;-70
2024/03/31 03:17:18;;;;;;;21.08;4.78;;;8.00;99.90;;;;;;5054862;28;20029;-70
2024/03/31 03:19:44;;;;;;;13.93;4.28;;;8.00;99.90;;;;;;5054692;28;20047;-70
2024/03/31 03:22:09;;;;;;;16.52;3.17;;;8.00;99.90;;;;;;5054538;28;20024;-70
2024/03/31 03:24:36;;;;;;;7.60;2.80;;;8.10;99.90;;;;;;5054947;28;20102;-70
2024/03/31 03:27:02;;;;;;;;;;;8.10;99.90;;;;;;5056599;28;20031;-71
2024/03/31 03:29:28;;;;;;;10.82;2.80;;;8.20;99.90;;;;;;5056624;28;19909;-70
2024/03/31 03:31:53;;;;;;;12.27;3.57;;;8.20;99.90;;;;;;5050530;28;20043;-70
2024/03/31 03:34:19;;;;;;;19.80;5.33;;;8.20;99.90;;;;;;5056705;28;20037;-71
2024/03/31 03:36:44;;;;;;;14.30;3.37;;;8.30;99.90;;;;;;5056558;28;20044;-71
2024/03/31 03:39:10;;;;;;;14.53;4.00;;;8.30;99.90;;;;;;5071102;28;20032;-70
2024/03/31 03:41:36;;;;;;;9.17;3.53;;;8.30;99.90;;;;;;5054931;28;20029;-70
2024/03/31 03:44:02;;;;;;;12.90;3.50;;;8.30;99.90;;;;;;5052825;28;20058;-68
2024/03/31 03:46:27;;;;;;;22.05;4.63;;;8.20;99.90;;;;;;5048147;28;20028;-68
2024/03/31 03:48:53;;;;;;;11.23;4.17;;;8.20;99.90;;;;;;5055942;28;20029;-69
2024/03/31 03:51:19;;;;;;;14.40;3.92;;;8.30;99.90;;;;;;5056735;28;20134;-68
2024/03/31 03:53:44;;;;;;;14.40;4.17;;;8.30;99.90;;;;;;5071806;28;20036;-69
2024/03/31 03:56:10;;;;;;;8.37;3.37;;;8.30;99.90;;;;;;5053764;28;20532;-68
2024/03/31 03:58:36;;;;;;;7.82;3.63;;;8.30;99.90;;;;;;5053985;28;20056;-70
2024/03/31 04:01:02;;;;;;;10.73;3.20;;;8.40;99.90;;;;;;5052932;28;20044;-70
2024/03/31 04:03:27;;;;;;;10.17;4.63;;;8.40;99.90;;;;;;5054146;28;20036;-71
2024/03/31 04:05:57;;;;;;;10.27;3.47;;;8.30;99.90;;;;;;5054745;28;20365;-70
2024/03/31 04:08:23;;;;;;;15.05;4.30;;;8.40;99.90;;;;;;5056489;28;20025;-70
2024/03/31 04:10:48;;;;;;;11.03;2.50;;;8.40;99.90;;;;;;5056750;28;20078;-70
2024/03/31 04:13:14;;;;;;;19.70;4.27;;;8.40;99.90;;;;;;5054534;28;20119;-68
2024/03/31 04:15:43;;;;;;;12.77;3.70;;;8.50;99.90;;;;;;5053685;28;20584;-69
2024/03/31 04:18:09;;;;;;;16.80;3.25;;;8.50;99.90;;;;;;5047741;28;20060;-67
2024/03/31 04:20:41;;;;;;;9.48;2.10;;;8.60;99.90;;;;;;5054584;28;20079;-70
2024/03/31 04:23:08;;;;;;;7.35;2.20;;;8.50;99.90;;;;;;5054364;28;20028;-69
2024/03/31 04:25:33;;;;;;;8.82;3.88;;;8.60;99.90;;;;;;5055035;28;20406;-69
2024/03/31 04:27:59;;;;;;;16.50;3.20;;;8.60;99.90;;;;;;5055068;28;20036;-69
2024/03/31 04:30:25;;;;;;;8.77;2.80;;;8.70;99.90;;;;;;5055378;28;20062;-69
2024/03/31 04:32:50;;;;;;;13.07;2.95;;;8.60;99.90;;;;;;5051550;28;20039;-68
2024/03/31 04:35:16;;;;;;;10.77;3.37;;;8.60;99.90;;;;;;5049252;28;20033;-69
2024/03/31 04:37:47;;;;;;;16.30;3.50;;;8.60;99.90;;;;;;5057734;28;20478;-68
2024/03/31 04:40:13;;;;;;;15.13;3.53;;;8.60;99.90;;;;;;5055835;28;20021;-69
2024/03/31 04:42:38;;;;;;;10.23;3.03;;;8.50;99.90;;;;;;5054438;28;20110;-68
2024/03/31 04:45:04;;;;;;;12.27;3.40;;;8.50;99.90;;;;;;5054242;28;20112;-68
2024/03/31 04:47:30;;;;;;;10.38;3.15;;;8.50;99.90;;;;;;5047494;28;20432;-70
2024/03/31 04:49:55;;;;;;;18.53;3.17;;;8.60;99.90;;;;;;5054575;28;20032;-69
2024/03/31 04:52:23;;;;;;;12.93;3.53;;;8.60;99.90;;;;;;5056005;28;20021;-69
2024/03/31 04:54:49;;;;;;;12.25;3.55;;;8.70;99.90;;;;;;5056191;28;20044;-69
2024/03/31 04:57:14;;;;;;;10.70;2.67;;;8.70;99.90;;;;;;5053691;28;20025;-68
2024/03/31 04:59:40;;;;;;;14.77;2.67;;;8.60;99.90;;;;;;5062070;28;20025;-69
2024/03/31 05:02:06;;;;;;;8.93;2.83;;;8.60;99.90;;;;;;5048824;28;20110;-69
2024/03/31 05:04:32;;;;;;;10.63;2.23;;;8.70;99.90;;;;;;5051466;28;20086;-69
2024/03/31 05:06:58;;;;;;;5.53;2.15;;;8.60;99.90;;;;;;5054008;28;20034;-70
2024/03/31 05:09:23;;;;;;;5.33;2.27;;;8.70;99.90;;;;;;5052171;28;20029;-70
2024/03/31 05:11:49;;;;;;;8.57;1.90;;;8.90;99.90;;;;;;5053320;28;20504;-70
2024/03/31 05:14:15;;;;;;;2.03;1.13;;;9.00;99.90;;;;;;5057659;28;20036;-70
2024/03/31 05:16:40;;;;;;;4.47;1.00;;;9.20;99.90;;;;;;5055774;28;20037;-70
2024/03/31 05:19:06;;;;;;;3.53;1.30;;;9.20;99.90;;;;;;5051527;28;20024;-70
2024/03/31 05:21:32;;;;;;;8.70;1.63;;;9.20;99.90;;;;;;5058558;28;20092;-71
2024/03/31 05:23:57;;;;;;;5.33;1.40;;;9.10;99.90;;;;;;5057233;28;20036;-70
2024/03/31 05:26:23;;;;;;;8.43;1.73;;;9.10;99.90;;;;;;5057949;28;20039;-70
2024/03/31 05:28:49;;;;;;;5.30;2.00;;;8.90;99.90;;;;;;5057293;28;20144;-71
2024/03/31 05:31:14;;;;;;;5.10;1.90;;;8.80;99.90;;;;;;5054787;28;20032;-70
2024/03/31 05:33:40;;;;;;;4.57;1.77;;;8.90;99.90;;;;;;5053656;28;20103;-71
2024/03/31 05:36:06;;;;;;;4.33;1.77;;;8.90;99.90;;;;;;5061706;28;20492;-70
2024/03/31 05:38:31;;;;;;;7.50;2.17;;;8.80;99.90;;;;;;5058409;28;20290;-70
2024/03/31 05:40:57;;;;;;;12.77;2.10;;;8.70;99.90;;;;;;5052724;28;20041;-70
2024/03/31 05:43:22;;;;;;;9.90;2.27;;;8.70;99.90;;;;;;5053345;28;20111;-70
2024/03/31 05:45:48;;;;;;;5.67;2.73;;;8.80;99.90;;;;;;5051085;28;20032;-71
2024/03/31 05:48:14;;;;;;;4.90;1.60;;;8.80;99.90;;;;;;5054187;28;20066;-68
2024/03/31 05:50:40;;;;;;;12.73;2.83;;;8.90;99.90;;;;;;5057956;28;20435;-67
2024/03/31 05:53:06;;;;;;;3.30;2.33;;;8.90;99.90;;;;;;5056215;28;20651;-67
2024/03/31 05:55:32;;;;;;;9.80;3.10;;;8.90;99.90;;;;;;5055963;28;20045;-67
2024/03/31 05:57:58;;;;;;;7.07;2.10;;;8.90;99.90;;;;;;5057678;28;20082;-68
2024/03/31 06:00:25;;;;;;;3.83;2.35;;;9.00;99.90;;;;;;5060448;28;20090;-71
2024/03/31 06:02:51;;;;;;;9.52;2.30;;;9.00;99.90;;;;;;5060913;28;20086;-71
2024/03/31 06:05:17;;;;;;;12.88;2.83;;;9.00;99.90;;;;;;5057457;28;20036;-71
2024/03/31 06:07:50;;;;;;;7.28;3.05;;;9.00;99.90;;;;;;5057227;28;20402;-72
2024/03/31 06:10:16;;;;;;;9.00;3.67;;;9.00;99.90;;;;;;5049779;28;20562;-70
2024/03/31 06:12:41;;;;;;;14.00;5.10;;;9.10;99.90;;;;;;5058764;28;20025;-72
2024/03/31 06:15:08;;;;;;;5.63;4.10;;;9.00;99.90;;;;;;5056840;28;20127;-72
2024/03/31 06:17:35;;;;;;;18.73;6.05;;;9.10;99.90;;;;;;5057632;28;20374;-71
2024/03/31 06:20:01;;;;;;;9.13;3.65;;;9.10;99.90;;;;;;5056542;28;20496;-71
2024/03/31 06:22:27;;;;;;;9.13;3.28;;;9.00;99.90;;;;;;5058938;28;20137;-71
2024/03/31 06:24:53;;;;;;;10.63;3.17;;;9.00;99.90;;;;;;5052786;28;20024;-69
2024/03/31 06:27:19;;;;;;;6.45;2.97;;;9.00;99.90;;;;;;5050991;28;20734;-68
2024/03/31 06:29:49;;;;;;;6.13;3.03;;;9.10;99.90;;;;;;5054833;28;20040;-69
2024/03/31 06:32:14;;;;;;;16.33;3.55;;;9.20;99.90;;;;;;5052357;28;20576;-70
2024/03/31 06:34:40;;;;;;;7.67;3.43;;;9.20;99.90;;;;;;5052414;28;20044;-69
2024/03/31 06:37:05;;;;;;;9.30;2.90;;;9.30;99.90;;;;;;5061402;28;20025;-70
2024/03/31 06:39:31;;;;;;;5.63;3.40;;;9.30;99.90;;;;;;5057397;28;20033;-69
2024/03/31 06:41:56;;;;;;;11.57;4.93;;;9.40;99.90;;;;;;5057730;28;20025;-69
2024/03/31 06:44:22;;;;;;;10.30;5.53;;;9.40;99.90;;;;;;5058188;28;20469;-70
2024/03/31 06:46:50;;;;;;;14.17;5.10;;;9.40;99.90;;;;;;5049425;28;20025;-68
2024/03/31 06:49:16;;;;;;;9.90;3.58;;;9.40;99.90;;;;;;5057324;28;20423;-69
2024/03/31 06:51:41;;;;;;;4.13;2.47;;;9.30;99.90;;;;;;5059443;28;20033;-70
2024/03/31 06:54:07;;;;;;;10.90;2.77;;;9.30;99.90;;;;;;5055461;28;20451;-71
2024/03/31 06:56:33;;;;;;;10.00;2.00;;;9.40;99.90;;;;;;5059982;28;20051;-70
2024/03/31 06:58:58;;;;;;;4.40;2.20;;;9.40;99.90;;;;;;5059849;28;20032;-71
2024/03/31 07:01:24;;;;;;;1.33;0.67;;;9.50;99.90;;;;;;5053707;28;20778;-70
2024/03/31 07:03:49;;;;;;;0.30;0.30;;;10.40;99.90;;;;;;5053494;28;20471;-71
2024/03/31 07:06:15;;;;;;;0.50;0.40;;;10.90;99.90;;;;;;5062382;28;20028;-71
2024/03/31 07:08:40;;;;;;;2.63;0.33;;;11.10;99.90;;;;;;5058100;28;20032;-71
2024/03/31 07:11:06;;;;;;;0.50;0.50;;;11.20;99.90;;;;;;5057099;28;20078;-74
2024/03/31 07:13:31;;;;;;;0.30;0.30;;;11.40;99.90;;;;;;5055977;28;20115;-72
2024/03/31 07:15:57;;;;;;;0.60;0.40;;;11.30;99.90;;;;;;5055326;28;20045;-75
2024/03/31 07:18:23;;;;;;;2.20;0.30;;;11.30;99.90;;;;;;5056003;28;20036;-72
2024/03/31 07:20:48;;;;;;;0.40;0.40;;;11.20;99.90;;;;;;5055576;28;20404;-78
2024/03/31 07:23:14;;;;;;;0.30;0.30;;;11.20;99.90;;;;;;5056137;28;20037;-78
2024/03/31 07:25:40;;;;;;;4.90;1.40;;;11.20;99.90;;;;;;5057351;28;20496;-79
2024/03/31 07:28:05;;;;;;;6.25;1.80;;;11.90;99.90;;;;;;5051936;28;20032;-79
2024/03/31 07:30:31;;;;;;;7.83;1.83;;;13.40;99.90;;;;;;5054512;28;20032;-71
2024/03/31 07:32:57;;;;;;;3.35;1.55;;;13.60;99.90;;;;;;5053446;28;20030;-68
2024/03/31 07:35:23;;;;;;;5.87;1.27;;;14.40;99.90;;;;;;5048206;28;20048;-70
2024/03/31 07:37:48;;;;;;;4.63;1.20;;;16.10;98.00;;;;;;5056452;28;20374;-68
2024/03/31 07:40:14;;;;;;;4.53;1.23;;;16.60;99.00;;;;;;5052049;28;20032;-70
2024/03/31 07:42:40;;;;;;;5.27;1.37;;;17.80;94.80;;;;;;5054886;28;20517;-71
2024/03/31 07:45:06;;;;;;;3.17;0.90;;;17.40;91.50;;;;;;5055940;28;20120;-77
2024/03/31 07:47:33;;;;;;;2.60;0.80;;;17.10;94.20;;;;;;5057302;28;20029;-76
2024/03/31 07:49:59;;;;;;;1.20;0.50;;;18.20;91.90;;;;;;5057693;28;20426;-72
2024/03/31 07:52:25;;;;;;;0.77;0.40;;;17.60;92.60;;;;;;5055645;28;20082;-71
2024/03/31 07:54:50;;;;;;;0.87;0.40;;;16.70;91.50;;;;;;5055462;28;20036;-72
2024/03/31 07:57:16;;;;;;;0.30;0.30;;;15.70;94.50;;;;;;5059235;28;20020;-72
2024/03/31 07:59:41;;;;;;;1.23;0.30;;;15.00;93.30;;;;;;5055088;28;20845;-73
2024/03/31 08:02:07;;;;;;;0.30;0.30;;;14.80;93.20;;;;;;5055595;28;20062;-72
2024/03/31 08:04:33;;;;;;;0.35;0.30;;;14.90;94.20;;;;;;5053258;28;20033;-69
2024/03/31 08:06:59;;;;;;;0.23;0.20;;;14.50;90.40;;;;;;5055051;28;20420;-70
2024/03/31 08:09:24;;;;;;;0.37;0.37;;;14.50;90.10;;;;;;5055167;28;20036;-71
2024/03/31 08:11:50;;;;;;;0.30;0.30;;;14.40;93.60;;;;;;5054384;28;20690;-73
2024/03/31 08:14:15;;;;;;;0.53;0.30;;;14.10;95.40;;;;;;5055035;28;20427;-68
2024/03/31 08:16:41;;;;;;;0.30;0.30;;;14.10;92.80;;;;;;5057253;28;20033;-68
2024/03/31 08:19:07;;;;;;;0.90;0.40;;;13.90;94.60;;;;;;5054132;28;20033;-67
2024/03/31 08:21:32;;;;;;;1.47;0.40;;;13.90;90.80;;;;;;5054128;28;20032;-68
2024/03/31 08:23:58;;;;;;;0.30;0.30;;;13.90;91.60;;;;;;5056613;28;20028;-70
2024/03/31 08:26:24;;;;;;;0.67;0.50;;;13.70;95.60;;;;;;5054151;28;20531;-73
2024/03/31 08:28:50;;;;;;;1.20;0.60;;;13.80;90.40;;;;;;5057687;28;20032;-73
2024/03/31 08:31:15;;;;;;;1.90;0.60;;;13.70;93.40;;;;;;5055006;28;20382;-72
2024/03/31 08:33:41;;;;;;;0.77;0.50;;;13.60;93.10;;;;;;5055603;28;20072;-70
2024/03/31 08:36:07;;;;;;;0.77;0.40;;;13.70;94.40;;;;;;5050877;28;20043;-67
2024/03/31 08:38:32;;;;;;;1.48;0.65;;;13.60;98.60;;;;;;5055476;28;20606;-68
2024/03/31 08:41:07;;;;;;;1.30;0.60;;;13.30;99.90;;;;;;5054141;28;20025;-69
2024/03/31 08:43:42;;;;;;;0.68;0.50;;;13.30;99.90;;;;;;5060403;28;20116;-69
2024/03/31 08:46:08;;;;;;;1.20;0.73;;;13.30;99.90;;;;;;5056343;28;20056;-70
2024/03/31 08:48:38;;;;;;;2.50;0.65;;;13.30;99.90;;;;;;5056187;28;20059;-66
2024/03/31 08:51:05;;;;;;;1.20;0.60;;;13.30;99.90;;;;;;5070833;28;20407;-67
2024/03/31 08:53:32;;;;;;;1.08;0.80;;;13.30;99.70;;;;;;5056173;28;20504;-69
2024/03/31 08:55:58;;;;;;;1.45;0.70;;;13.20;99.90;;;;;;5053189;28;20147;-68
2024/03/31 08:58:23;;;;;;;6.23;1.17;;;13.10;99.90;;;;;;5060061;28;20463;-68
2024/03/31 09:00:50;;;;;;;4.00;0.93;;;13.00;99.90;;;;;;5059396;28;20048;-67
2024/03/31 09:03:17;;;;;;;1.02;0.68;;;13.00;99.90;;;;;;5057636;28;20445;-67
2024/03/31 09:05:42;;;;;;;1.05;0.73;;;13.00;99.90;;;;;;5058330;28;20025;-66
2024/03/31 09:08:08;;;;;;;1.00;0.70;;;13.00;99.90;;;;;;5059475;28;20037;-68
2024/03/31 09:10:35;;;;;;;2.10;0.60;;;13.20;99.90;;;;;;5058865;28;20111;-66
2024/03/31 09:13:08;;;;;;;0.98;0.50;;;13.60;99.90;;;;;;5061241;28;20033;-71
2024/03/31 09:15:35;;;;;;;1.05;0.70;;;13.80;99.90;;;;;;5060080;28;20553;-71
2024/03/31 09:18:00;;;;;;;;;;;14.30;99.90;;;;;;5063588;28;20852;-66
2024/03/31 09:20:26;;;;;;;2.75;0.80;;;14.50;97.00;;;;;;5059380;28;19917;-67
2024/03/31 09:22:52;;;;;;;0.40;0.40;;;14.50;93.50;;;;;;5058275;28;20070;-67
2024/03/31 09:25:18;;;;;;;1.73;0.70;;;14.50;98.00;;;;;;5054351;28;20532;-67
2024/03/31 09:27:43;;;;;;;1.25;1.02;;;14.70;93.70;;;;;;5058538;28;20082;-67
2024/03/31 09:30:09;;;;;;;1.13;0.80;;;15.30;94.50;;;;;;5057568;28;20446;-66
2024/03/31 09:32:37;;;;;;;1.33;0.85;;;19.20;91.60;;;;;;5054014;28;20025;-66
2024/03/31 09:35:04;;;;;;;1.40;0.90;;;20.90;78.70;;;;;;5055431;28;20052;-69
2024/03/31 09:37:30;;;;;;;0.93;0.70;;;19.40;74.20;;;;;;5056742;28;20032;-68
2024/03/31 09:42:00;;;;;;;0.75;0.75;;;22.30;77.20;;;;;;5116173;27;20363;-69
2024/03/31 09:44:28;;;;;;;1.03;0.80;;;18.20;99.90;;;;;;5087682;28;20035;-71
2024/03/31 09:46:53;;;;;;;0.73;0.73;;;18.30;99.90;;;;;;5093446;28;20036;-70
2024/03/31 09:49:28;;;;;;;0.80;0.80;;;19.50;96.80;;;;;;5091849;28;20107;-70
2024/03/31 09:51:58;;;;;;;0.80;0.80;;;20.20;97.30;;;;;;5083623;28;20032;-69
2024/03/31 09:54:30;;;;;;;1.75;0.90;;;19.00;73.50;;;;;;5094166;28;20166;-69
2024/03/31 09:57:06;;;;;;;0.88;0.85;;;21.80;75.70;;;;;;5090705;28;20029;-70
2024/03/31 09:59:44;;;;;;;2.83;0.80;;;23.30;75.30;;;;;;5094439;28;20032;-69
2024/03/31 10:02:13;;;;;;;0.80;0.80;;;22.60;68.10;;;;;;5102813;28;20046;-70
2024/03/31 10:05:05;;;;;;;0.30;0.30;;;23.60;70.90;;;;;;5086956;28;20036;-69
2024/03/31 10:07:32;;;;;;;0.30;0.30;;;20.40;66.40;;;;;;5095880;28;20043;-70
2024/03/31 10:10:01;;;;;;;0.20;0.20;;;19.40;69.90;;;;;;5089945;28;20031;-70
2024/03/31 10:12:28;;;;;;;0.50;0.40;;;19.40;71.50;;;;;;5091285;28;20118;-69
2024/03/31 10:14:55;;;;;;;0.77;0.28;;;19.10;72.30;;;;;;5086084;28;20051;-69
2024/03/31 10:17:22;;;;;;;0.65;0.20;;;19.80;71.80;;;;;;5094335;28;20504;-69
2024/03/31 10:19:49;;;;;;;0.82;0.38;;;19.20;72.00;;;;;;5085192;28;20117;-69
2024/03/31 10:22:15;;;;;;;3.40;0.30;;;19.90;71.30;;;;;;5082735;28;20031;-69
2024/03/31 10:24:42;;;;;;;0.25;0.25;;;19.40;68.90;;;;;;5094451;28;20393;-69
2024/03/31 10:27:08;;;;;;;0.75;0.30;;;18.90;70.60;;;;;;5086783;28;20086;-69
2024/03/31 10:29:35;;;;;;;2.53;0.30;;;18.30;70.90;;;;;;5085727;28;20020;-69
2024/03/31 10:32:08;;;;;;;0.32;0.32;;;17.70;70.80;;;;;;5091283;28;20060;-69
2024/03/31 10:34:36;;;;;;;1.00;0.20;;;17.40;75.20;;;;;;5095727;28;20020;-69
2024/03/31 10:37:03;;;;;;;0.20;0.20;;;17.10;76.50;;;;;;5093746;28;20024;-69
2024/03/31 10:39:28;;;;;;;0.20;0.20;;;16.90;74.30;;;;;;5090833;28;20446;-69
2024/03/31 10:41:54;;;;;;;0.20;0.20;;;16.70;74.50;;;;;;5095896;28;20430;-69
2024/03/31 10:44:20;;;;;;;0.30;0.30;;;16.60;78.80;;;;;;5094090;28;20036;-69
2024/03/31 10:46:46;;;;;;;0.35;0.28;;;16.60;79.70;;;;;;5092270;28;20394;-69
2024/03/31 10:49:12;;;;;;;0.83;0.20;;;16.40;78.40;;;;;;5090869;28;20042;-69
2024/03/31 10:51:43;;;;;;;0.10;0.10;;;16.30;76.70;;;;;;5085829;28;20498;-69
2024/03/31 10:54:31;;;;;;;0.60;0.28;;;16.70;82.50;;;;;;5078708;28;20405;-71
2024/03/31 10:57:01;;;;;;;1.90;0.40;;;17.20;75.20;;;;;;5070635;28;20036;-69
2024/03/31 10:59:28;;;;;;;0.40;0.30;;;17.90;78.10;;;;;;5074624;28;20028;-69
2024/03/31 11:01:56;;;;;;;0.57;0.40;;;18.40;75.40;;;;;;5083664;28;20024;-69
2024/03/31 11:04:23;;;;;;;0.40;0.38;;;18.40;73.30;;;;;;5080212;28;20048;-69
2024/03/31 11:06:51;;;;;;;1.55;0.35;;;18.10;73.50;;;;;;5079575;28;20032;-69
2024/03/31 11:09:17;;;;;;;0.40;0.30;;;17.70;76.80;;;;;;5074378;28;20029;-69
2024/03/31 11:11:43;;;;;;;0.95;0.38;;;17.20;76.40;;;;;;5080578;28;20063;-69
2024/03/31 11:14:09;;;;;;;0.30;0.30;;;17.00;76.70;;;;;;5076474;28;20033;-69
2024/03/31 11:16:36;;;;;;;0.30;0.30;;;17.00;79.20;;;;;;5077902;28;20131;-67
2024/03/31 11:19:03;;;;;;;1.05;0.40;;;16.90;74.70;;;;;;5081053;28;20043;-66
2024/03/31 11:21:31;;;;;;;1.20;0.70;;;17.00;79.10;;;;;;5071652;28;20067;-70
2024/03/31 11:24:00;;;;;;;0.75;0.32;;;17.00;79.70;;;;;;5080680;28;20033;-69
2024/03/31 11:26:26;;;;;;;0.52;0.38;;;16.90;78.70;;;;;;5078246;28;20038;-69
2024/03/31 11:28:54;;;;;;;;;;;17.20;78.20;;;;;;5076913;28;20044;-68
2024/03/31 11:31:20;;;;;;;;;;;17.50;76.90;;;;;;5063988;28;19909;-67
2024/03/31 11:33:47;;;;;;;0.85;0.60;;;17.90;77.70;;;;;;5069080;28;20056;-68
2024/03/31 11:36:13;;;;;;;;;;;17.80;78.10;;;;;;5073637;28;20087;-68
2024/03/31 11:38:38;;;;;;;1.52;0.57;;;17.80;77.10;;;;;;5070995;28;20384;-68
2024/03/31 11:41:05;;;;;;;3.10;0.40;;;17.80;76.30;;;;;;5085983;28;20032;-66
2024/03/31 11:43:31;;;;;;;6.65;0.52;;;17.80;77.00;;;;;;5077924;28;20861;-66
2024/03/31 11:45:56;;;;;;;2.47;0.80;;;17.90;75.60;;;;;;5082933;28;20115;-66
2024/03/31 11:48:22;;;;;;;1.93;0.50;;;18.10;75.90;;;;;;5072673;28;20044;-66
2024/03/31 11:50:48;;;;;;;1.17;0.60;;;18.20;74.60;;;;;;5078930;28;20028;-66
2024/03/31 11:53:13;;;;;;;2.67;0.90;;;18.20;75.90;;;;;;5084229;28;20032;-65
2024/03/31 11:55:41;;;;;;;1.17;0.40;;;18.50;72.50;;;;;;5073452;28;20025;-65
2024/03/31 11:58:07;;;;;;;0.90;0.50;;;18.90;74.10;;;;;;5080264;28;20110;-65
2024/03/31 12:00:33;;;;;;;2.05;0.65;;;18.90;73.80;;;;;;5080010;28;20509;-66
2024/03/31 12:03:07;;;;;;;1.53;0.67;;;18.70;74.40;;;;;;5081226;28;20119;-65
2024/03/31 12:05:36;;;;;;;1.00;0.60;;;18.70;76.10;;;;;;5080406;28;20077;-66
2024/03/31 12:08:02;;;;;;;1.25;0.50;;;18.50;75.70;;;;;;5087976;28;20027;-66
2024/03/31 12:10:28;;;;;;;1.80;0.60;;;18.70;74.00;;;;;;5084359;28;20486;-65
2024/03/31 12:12:53;;;;;;;4.05;0.60;;;18.90;76.90;;;;;;5088743;28;20036;-66
2024/03/31 12:15:20;;;;;;;2.20;0.70;;;19.10;77.70;;;;;;5083518;28;20036;-66
2024/03/31 12:17:46;;;;;;;1.52;0.50;;;18.80;73.30;;;;;;5072002;28;20094;-68
2024/03/31 12:20:12;;;;;;;3.22;0.60;;;18.90;75.70;;;;;;5074023;28;20071;-67
2024/03/31 12:22:41;;;;;;;4.73;0.50;;;18.80;72.00;;;;;;5083337;28;20016;-68
2024/03/31 12:25:11;;;;;;;4.13;0.50;;;18.80;72.50;;;;;;5082609;28;20024;-68
2024/03/31 12:27:37;;;;;;;6.18;0.73;;;18.80;68.70;;;;;;5068180;28;20031;-68
2024/03/31 12:30:04;;;;;;;3.53;0.50;;;19.00;71.50;;;;;;5079697;28;20016;-68
2024/03/31 12:32:30;;;;;;;7.03;0.70;;;19.10;70.40;;;;;;5064620;28;20587;-68
2024/03/31 12:34:57;;;;;;;3.75;0.80;;;19.00;69.10;;;;;;5085411;28;20035;-68
2024/03/31 12:37:26;;;;;;;4.07;0.63;;;19.00;65.90;;;;;;5080314;28;20041;-68
2024/03/31 12:39:56;;;;;;;4.93;1.00;;;18.90;68.40;;;;;;5082010;28;20111;-68
2024/03/31 12:42:22;;;;;;;11.15;0.85;;;19.00;67.80;;;;;;5074550;28;20038;-67
2024/03/31 12:44:55;;;;;;;;;;;19.10;67.90;;;;;;5078611;28;20024;-68
2024/03/31 12:47:20;;;;;;;3.65;0.80;;;19.00;67.00;;;;;;5080058;28;20014;-68